Time;durP1;ratioP1;P1;durP2;ratioP2;P2;SDS_P1;SDS_P2;PMS_P1;PMS_P2;Temp;Humidity;BMP_temperature;BMP_pressure;BME280_temperature;BME280_humidity;BME280_pressure;Samples;Min_cycle;Max_cycle;Signal;HPM_P1;HPM_P2
2023/10/20 00:01:18;;;;;;;8.07;2.63;;;15.30;25.40;;;;;;5013682;28;20354;-67
2023/10/20 00:03:43;;;;;;;3.13;2.00;;;15.40;26.80;;;;;;5013232;28;20172;-67
2023/10/20 00:06:09;;;;;;;4.27;2.07;;;15.30;28.80;;;;;;5011873;28;20176;-69
2023/10/20 00:08:35;;;;;;;4.80;2.60;;;15.20;29.70;;;;;;5012562;28;20215;-69
2023/10/20 00:11:04;;;;;;;2.50;1.60;;;15.10;31.10;;;;;;5012797;28;20184;-68
2023/10/20 00:13:29;;;;;;;3.27;1.83;;;15.10;28.40;;;;;;5013190;28;20601;-69
2023/10/20 00:15:55;;;;;;;2.80;1.80;;;15.10;30.20;;;;;;5012708;28;20485;-69
2023/10/20 00:18:21;;;;;;;3.37;2.20;;;15.10;32.20;;;;;;5012792;28;20253;-68
2023/10/20 00:20:47;;;;;;;3.73;1.70;;;15.00;34.00;;;;;;5011320;28;20203;-67
2023/10/20 00:23:14;;;;;;;4.70;2.33;;;14.90;35.30;;;;;;5015126;28;20441;-68
2023/10/20 00:25:40;;;;;;;4.30;2.20;;;14.80;37.00;;;;;;5016405;28;20196;-68
2023/10/20 00:28:06;;;;;;;2.90;2.30;;;14.90;38.10;;;;;;5016113;28;20438;-69
2023/10/20 00:30:31;;;;;;;3.30;1.87;;;14.80;38.70;;;;;;5016427;28;20496;-68
2023/10/20 00:32:57;;;;;;;5.27;2.70;;;14.80;38.50;;;;;;5016309;28;20257;-68
2023/10/20 00:35:23;;;;;;;3.60;2.50;;;14.80;40.40;;;;;;5016124;28;20175;-69
2023/10/20 00:37:48;;;;;;;3.43;2.00;;;14.80;39.90;;;;;;5015854;28;20573;-68
2023/10/20 00:40:14;;;;;;;5.20;3.07;;;14.80;39.60;;;;;;5014588;28;20204;-68
2023/10/20 00:42:40;;;;;;;3.40;2.70;;;14.80;40.60;;;;;;5014967;28;20200;-67
2023/10/20 00:45:08;;;;;;;4.00;1.77;;;14.80;40.20;;;;;;5016031;28;20246;-68
2023/10/20 00:47:35;;;;;;;4.50;2.93;;;14.70;40.90;;;;;;5015832;28;20200;-67
2023/10/20 00:50:02;;;;;;;4.90;2.53;;;14.60;43.00;;;;;;5015927;28;20477;-67
2023/10/20 00:52:31;;;;;;;3.87;2.10;;;14.50;44.40;;;;;;5015667;28;20425;-69
2023/10/20 00:54:58;;;;;;;4.80;2.97;;;14.60;44.10;;;;;;5015961;28;20933;-68
2023/10/20 00:57:25;;;;;;;4.30;2.10;;;14.70;43.70;;;;;;5015505;28;20446;-67
2023/10/20 00:59:50;;;;;;;3.20;2.33;;;14.70;43.50;;;;;;5015789;28;20419;-67
2023/10/20 01:02:16;;;;;;;2.57;1.73;;;14.70;43.20;;;;;;5014392;28;20996;-67
2023/10/20 01:04:41;;;;;;;3.90;1.97;;;14.60;44.10;;;;;;5015585;28;20722;-67
2023/10/20 01:07:07;;;;;;;4.10;2.23;;;14.50;45.30;;;;;;5015273;28;20638;-67
2023/10/20 01:09:32;;;;;;;2.67;2.07;;;14.40;47.80;;;;;;5015288;28;20180;-67
2023/10/20 01:11:58;;;;;;;3.00;2.00;;;14.30;51.10;;;;;;5015387;28;20679;-68
2023/10/20 01:14:23;;;;;;;3.30;2.17;;;14.20;51.40;;;;;;5015581;28;20183;-68
2023/10/20 01:16:49;;;;;;;3.30;1.97;;;14.20;52.50;;;;;;5015796;28;20219;-68
2023/10/20 01:19:14;;;;;;;5.87;2.20;;;14.20;52.20;;;;;;5015677;28;20168;-68
2023/10/20 01:21:40;;;;;;;3.07;2.00;;;14.20;51.80;;;;;;5015955;28;20234;-69
2023/10/20 01:24:06;;;;;;;3.27;1.60;;;14.30;51.30;;;;;;5014659;28;20211;-68
2023/10/20 01:26:34;;;;;;;4.37;2.33;;;14.30;51.40;;;;;;5015227;28;20209;-68
2023/10/20 01:29:00;;;;;;;6.10;2.30;;;14.30;51.00;;;;;;5015035;28;20461;-68
2023/10/20 01:31:25;;;;;;;2.57;1.60;;;14.30;50.30;;;;;;5014949;28;20419;-68
2023/10/20 01:33:51;;;;;;;6.70;1.50;;;14.30;50.40;;;;;;5014584;28;20176;-68
2023/10/20 01:36:17;;;;;;;4.37;2.70;;;14.30;51.30;;;;;;5014821;28;20204;-68
2023/10/20 01:38:43;;;;;;;3.70;2.03;;;14.30;52.00;;;;;;5014928;28;20246;-68
2023/10/20 01:41:08;;;;;;;3.03;1.93;;;14.20;51.90;;;;;;5015025;28;20319;-68
2023/10/20 01:43:34;;;;;;;4.10;1.97;;;14.20;51.80;;;;;;5014922;28;20184;-68
2023/10/20 01:46:03;;;;;;;2.63;1.50;;;14.10;53.70;;;;;;5013980;28;20523;-68
2023/10/20 01:48:30;;;;;;;5.13;1.90;;;14.10;53.20;;;;;;5014795;28;20262;-68
2023/10/20 01:50:56;;;;;;;3.57;2.47;;;14.20;52.00;;;;;;5015371;28;20498;-68
2023/10/20 01:53:22;;;;;;;3.57;2.30;;;14.10;50.40;;;;;;5015130;28;20407;-69
2023/10/20 01:55:49;;;;;;;6.20;2.20;;;14.10;49.90;;;;;;5013544;28;20502;-68
2023/10/20 01:58:19;;;;;;;3.03;2.20;;;14.10;51.90;;;;;;5014411;28;20203;-68
2023/10/20 02:00:50;;;;;;;3.60;2.00;;;14.20;50.10;;;;;;5014686;28;20497;-68
2023/10/20 02:03:16;;;;;;;4.40;1.50;;;14.10;51.50;;;;;;5014840;28;20411;-68
2023/10/20 02:05:42;;;;;;;2.30;1.60;;;14.20;50.80;;;;;;5014517;28;20411;-68
2023/10/20 02:08:10;;;;;;;3.57;2.50;;;14.20;51.60;;;;;;5012959;28;20581;-67
2023/10/20 02:10:36;;;;;;;3.80;2.73;;;14.20;51.20;;;;;;5014369;28;20600;-67
2023/10/20 02:13:02;;;;;;;3.30;2.20;;;14.10;52.20;;;;;;5013179;28;20513;-68
2023/10/20 02:15:29;;;;;;;4.87;2.60;;;14.10;53.30;;;;;;5014346;28;20258;-67
2023/10/20 02:17:55;;;;;;;5.17;2.30;;;14.10;52.20;;;;;;5049475;22;20493;-68
2023/10/20 02:20:23;;;;;;;3.40;1.83;;;14.10;52.10;;;;;;5031260;28;20982;-68
2023/10/20 02:22:55;;;;;;;4.57;3.00;;;14.10;51.90;;;;;;5032721;28;20171;-68
2023/10/20 02:25:20;;;;;;;6.70;3.27;;;14.20;50.80;;;;;;5032716;28;20417;-67
2023/10/20 02:27:47;;;;;;;3.87;2.60;;;14.20;50.90;;;;;;5032391;28;20434;-68
2023/10/20 02:30:14;;;;;;;4.37;2.60;;;14.20;50.70;;;;;;5032609;28;20653;-68
2023/10/20 02:32:40;;;;;;;3.10;2.10;;;14.20;51.30;;;;;;5032441;28;20446;-68
2023/10/20 02:35:08;;;;;;;3.60;3.03;;;14.20;51.10;;;;;;5032398;28;20450;-69
2023/10/20 02:37:33;;;;;;;4.80;3.50;;;14.10;51.90;;;;;;5032291;28;20442;-68
2023/10/20 02:39:59;;;;;;;5.10;3.57;;;14.10;53.50;;;;;;5032253;28;20983;-68
2023/10/20 02:42:25;;;;;;;3.87;3.20;;;14.00;53.20;;;;;;5032405;28;20171;-68
2023/10/20 02:44:50;;;;;;;3.50;2.97;;;13.90;54.80;;;;;;5032266;28;20754;-68
2023/10/20 02:47:16;;;;;;;8.80;3.07;;;13.90;54.80;;;;;;5030481;28;20225;-68
2023/10/20 02:49:41;;;;;;;5.10;2.67;;;14.00;55.00;;;;;;5032259;28;20210;-68
2023/10/20 02:52:07;;;;;;;4.47;2.50;;;14.00;54.90;;;;;;5032190;28;20172;-68
2023/10/20 02:54:36;;;;;;;3.57;2.67;;;14.00;55.00;;;;;;5032189;28;20221;-67
2023/10/20 02:57:05;;;;;;;3.13;2.43;;;14.00;54.90;;;;;;5031785;28;20242;-68
2023/10/20 02:59:30;;;;;;;4.03;2.63;;;14.10;55.00;;;;;;5032018;28;20413;-69
2023/10/20 03:01:57;;;;;;;4.50;3.40;;;14.00;54.00;;;;;;5031869;28;20960;-69
2023/10/20 03:04:22;;;;;;;5.50;3.23;;;13.90;55.10;;;;;;5031857;28;20417;-68
2023/10/20 03:06:48;;;;;;;4.30;2.93;;;13.90;56.60;;;;;;5030810;28;20248;-68
2023/10/20 03:09:13;;;;;;;7.03;4.80;;;13.90;56.30;;;;;;5031749;28;20170;-67
2023/10/20 03:11:39;;;;;;;5.43;4.93;;;13.90;56.60;;;;;;5031845;28;20190;-68
2023/10/20 03:14:05;;;;;;;5.53;4.50;;;13.90;57.50;;;;;;5031865;28;20720;-68
2023/10/20 03:16:31;;;;;;;4.20;3.40;;;13.90;56.90;;;;;;5030255;28;20549;-68
2023/10/20 03:18:56;;;;;;;5.63;4.97;;;13.80;58.60;;;;;;5031636;28;20185;-69
2023/10/20 03:21:23;;;;;;;6.40;4.87;;;13.80;59.60;;;;;;5030371;28;20207;-68
2023/10/20 03:23:49;;;;;;;11.40;4.20;;;13.80;59.60;;;;;;5031717;28;20167;-68
2023/10/20 03:26:14;;;;;;;5.50;3.17;;;13.90;59.50;;;;;;5031625;28;20414;-69
2023/10/20 03:28:40;;;;;;;4.40;3.57;;;13.80;59.40;;;;;;5031539;28;20167;-68
2023/10/20 03:31:07;;;;;;;6.23;4.30;;;13.70;60.90;;;;;;5031637;28;20200;-68
2023/10/20 03:33:32;;;;;;;9.40;4.97;;;13.70;61.70;;;;;;5031690;28;20723;-68
2023/10/20 03:36:00;;;;;;;5.00;4.00;;;13.70;62.40;;;;;;5030477;28;20422;-68
2023/10/20 03:38:25;;;;;;;5.33;4.50;;;13.70;62.10;;;;;;5031318;28;20194;-68
2023/10/20 03:40:51;;;;;;;5.23;4.40;;;13.70;62.80;;;;;;5031542;28;20457;-69
2023/10/20 03:43:16;;;;;;;6.77;2.57;;;13.70;62.80;;;;;;5031565;28;20242;-68
2023/10/20 03:45:48;;;;;;;4.90;2.70;;;13.70;62.30;;;;;;5030094;28;20649;-68
2023/10/20 03:48:14;;;;;;;5.47;3.70;;;13.70;63.20;;;;;;5031520;28;20192;-68
2023/10/20 03:50:42;;;;;;;5.17;3.57;;;13.70;62.60;;;;;;5031588;28;20410;-68
2023/10/20 03:53:10;;;;;;;7.27;3.43;;;13.70;62.10;;;;;;5031558;28;20186;-68
2023/10/20 03:55:36;;;;;;;3.27;2.53;;;13.70;61.70;;;;;;5030467;28;20947;-68
2023/10/20 03:58:02;;;;;;;5.53;3.90;;;13.60;63.90;;;;;;5032021;28;20438;-67
2023/10/20 04:00:28;;;;;;;5.90;5.13;;;13.50;63.60;;;;;;5035298;28;20230;-67
2023/10/20 04:02:55;;;;;;;6.90;5.70;;;13.50;65.10;;;;;;5035513;28;20998;-68
2023/10/20 04:05:21;;;;;;;5.60;3.47;;;13.50;64.50;;;;;;5035249;28;20504;-67
2023/10/20 04:07:47;;;;;;;5.03;4.33;;;13.50;66.10;;;;;;5035049;28;20456;-68
2023/10/20 04:10:14;;;;;;;4.60;4.00;;;13.50;65.70;;;;;;5035100;28;20500;-68
2023/10/20 04:12:41;;;;;;;4.33;3.30;;;13.50;64.70;;;;;;5035185;28;20430;-68
2023/10/20 04:15:09;;;;;;;5.57;4.17;;;13.60;64.70;;;;;;5033888;28;20429;-68
2023/10/20 04:17:38;;;;;;;4.97;3.87;;;13.60;64.50;;;;;;5034014;28;20453;-68
2023/10/20 04:20:06;;;;;;;4.87;3.30;;;13.60;64.60;;;;;;5033605;28;20453;-68
2023/10/20 04:22:32;;;;;;;5.13;3.77;;;13.50;64.40;;;;;;5033780;28;20418;-69
2023/10/20 04:24:58;;;;;;;5.30;4.53;;;13.60;65.10;;;;;;5032657;28;20769;-68
2023/10/20 04:27:47;;;;;;;5.10;4.30;;;13.50;65.50;;;;;;5033433;28;20194;-69
2023/10/20 05:02:44;;;;;;;5.17;4.10;;;13.40;66.00;;;;;;5033035;28;20181;-69
2023/10/20 05:07:57;;;;;;;6.73;5.77;;;13.20;67.50;;;;;;5032926;28;20433;-69
2023/10/20 05:10:23;;;;;;;6.57;4.80;;;13.20;67.00;;;;;;5030793;28;20939;-68
2023/10/20 05:12:49;;;;;;;7.43;5.20;;;13.10;66.40;;;;;;5031663;28;20460;-68
2023/10/20 05:15:15;;;;;;;8.63;6.10;;;13.20;65.60;;;;;;5032788;28;20452;-68
2023/10/20 05:17:41;;;;;;;7.80;7.03;;;13.10;66.80;;;;;;4995362;28;1048859;-68
2023/10/20 05:20:12;;;;;;;8.50;6.97;;;13.10;67.80;;;;;;5033697;28;20206;-70
2023/10/20 05:22:41;;;;;;;8.40;7.60;;;13.10;69.20;;;;;;5033874;28;20185;-68
2023/10/20 05:25:08;;;;;;;7.50;6.80;;;13.10;69.20;;;;;;5032422;28;20427;-68
2023/10/20 05:27:34;;;;;;;9.13;8.13;;;13.10;70.20;;;;;;5032157;28;20449;-67
2023/10/20 05:30:00;;;;;;;10.57;7.60;;;13.20;69.00;;;;;;5032268;28;20888;-68
2023/10/20 05:32:27;;;;;;;8.90;7.10;;;13.10;69.60;;;;;;5032325;28;20422;-68
2023/10/20 05:34:54;;;;;;;8.40;7.60;;;13.10;69.10;;;;;;5033403;28;20329;-69
2023/10/20 05:37:23;;;;;;;8.07;7.27;;;13.10;69.70;;;;;;5033273;28;20438;-68
2023/10/20 05:39:48;;;;;;;9.70;8.67;;;13.00;69.40;;;;;;5032181;28;20563;-68
2023/10/20 05:42:16;;;;;;;12.87;9.00;;;13.00;68.90;;;;;;5033342;28;20497;-68
2023/10/20 05:44:48;;;;;;;10.87;8.53;;;13.00;70.20;;;;;;5032278;28;20178;-67
2023/10/20 05:47:14;;;;;;;11.23;8.07;;;13.00;69.50;;;;;;5033052;28;20461;-68
2023/10/20 05:49:39;;;;;;;8.70;7.63;;;13.00;71.00;;;;;;5033203;28;20450;-68
2023/10/20 05:52:05;;;;;;;7.50;6.80;;;13.00;70.00;;;;;;5033390;28;20914;-68
2023/10/20 05:54:31;;;;;;;8.50;7.10;;;13.00;68.60;;;;;;5033123;28;20180;-69
2023/10/20 05:56:57;;;;;;;8.70;7.90;;;13.00;68.70;;;;;;5032676;28;20596;-68
2023/10/20 05:59:23;;;;;;;10.20;8.37;;;13.00;69.10;;;;;;5031766;28;20841;-67
2023/10/20 06:01:48;;;;;;;10.23;7.73;;;12.90;68.50;;;;;;5032891;28;20219;-68
2023/10/20 06:04:14;;;;;;;9.27;7.90;;;12.90;68.30;;;;;;5033030;28;20268;-68
2023/10/20 06:06:39;;;;;;;9.80;7.83;;;12.80;68.20;;;;;;5031576;28;20202;-68
2023/10/20 06:09:09;;;;;;;8.87;7.83;;;12.90;67.80;;;;;;5032715;28;20225;-68
2023/10/20 06:11:37;;;;;;;9.30;8.37;;;12.80;67.00;;;;;;5032810;28;20168;-68
2023/10/20 06:14:04;;;;;;;14.33;8.97;;;12.80;68.10;;;;;;5031758;28;20441;-68
2023/10/20 06:16:32;;;;;;;9.80;8.80;;;12.80;68.30;;;;;;5031317;28;20866;-68
2023/10/20 06:18:57;;;;;;;11.77;9.00;;;12.80;67.60;;;;;;5032819;28;20471;-70
2023/10/20 06:21:23;;;;;;;12.00;9.60;;;12.80;68.90;;;;;;5031135;28;20872;-67
2023/10/20 06:23:49;;;;;;;10.47;8.50;;;12.80;67.60;;;;;;5031478;28;20234;-67
2023/10/20 06:26:15;;;;;;;12.50;9.73;;;12.80;68.90;;;;;;5031276;28;20592;-68
2023/10/20 06:28:41;;;;;;;11.63;10.07;;;12.80;70.50;;;;;;5032592;28;20445;-68
2023/10/20 06:33:48;;;;;;;11.87;9.20;;;12.90;71.30;;;;;;5032434;28;20844;-67
2023/10/20 06:36:20;;;;;;;13.03;10.73;;;12.90;69.50;;;;;;5031268;28;20414;-68
2023/10/20 06:38:46;;;;;;;11.57;10.37;;;12.90;70.50;;;;;;5030920;28;20425;-68
2023/10/20 06:41:16;;;;;;;18.20;13.10;;;12.90;69.80;;;;;;5032195;28;20820;-68
2023/10/20 06:43:41;;;;;;;14.23;11.83;;;12.90;70.00;;;;;;5032368;28;20174;-67
2023/10/20 06:46:07;;;;;;;14.40;11.93;;;12.90;70.30;;;;;;5031051;28;20789;-68
2023/10/20 06:48:32;;;;;;;11.70;10.60;;;12.90;71.00;;;;;;5030697;28;20571;-68
2023/10/20 06:50:58;;;;;;;15.00;11.00;;;13.00;70.30;;;;;;5030955;28;20665;-69
2023/10/20 06:53:25;;;;;;;14.63;11.70;;;13.00;69.50;;;;;;5030990;28;20630;-69
2023/10/20 06:55:51;;;;;;;12.83;10.73;;;13.00;70.50;;;;;;5032024;28;20410;-68
2023/10/20 06:58:19;;;;;;;13.63;9.87;;;13.00;67.80;;;;;;5031805;28;20821;-68
2023/10/20 07:00:46;;;;;;;15.93;10.73;;;13.00;68.30;;;;;;5031759;28;20467;-68
2023/10/20 07:03:12;;;;;;;13.00;11.07;;;13.10;69.40;;;;;;5030621;28;20425;-68
2023/10/20 07:05:39;;;;;;;15.23;11.90;;;13.10;67.70;;;;;;5031888;28;20422;-67
2023/10/20 07:08:05;;;;;;;14.10;12.60;;;13.10;68.20;;;;;;5031803;28;20495;-68
2023/10/20 07:10:37;;;;;;;13.27;11.93;;;13.30;68.70;;;;;;5030522;28;20426;-68
2023/10/20 07:13:11;;;;;;;15.73;12.57;;;13.50;64.40;;;;;;5031791;28;20588;-68
2023/10/20 07:15:37;;;;;;;13.30;11.90;;;13.50;60.20;;;;;;5031876;28;20417;-68
2023/10/20 07:18:04;;;;;;;15.13;11.63;;;13.50;56.00;;;;;;5032282;28;20832;-68
2023/10/20 07:20:34;;;;;;;14.40;12.77;;;13.40;54.60;;;;;;5032237;28;20464;-68
2023/10/20 07:23:00;;;;;;;14.90;12.40;;;13.40;54.40;;;;;;5031720;28;20532;-68
2023/10/20 07:25:28;;;;;;;15.70;12.10;;;13.40;53.70;;;;;;5030627;28;20418;-68
2023/10/20 07:27:54;;;;;;;14.10;10.60;;;13.40;52.70;;;;;;5031352;28;20695;-68
2023/10/20 07:30:20;;;;;;;16.27;11.80;;;13.40;52.60;;;;;;5031546;28;20417;-67
2023/10/20 07:32:46;;;;;;;14.20;12.73;;;13.50;51.20;;;;;;5033450;28;20175;-68
2023/10/20 07:35:12;;;;;;;16.67;13.13;;;13.60;48.50;;;;;;5034516;28;20671;-68
2023/10/20 07:37:38;;;;;;;17.30;12.20;;;13.60;46.20;;;;;;5034162;28;20590;-68
2023/10/20 07:40:07;;;;;;;15.23;13.00;;;13.80;51.00;;;;;;5035634;28;20767;-68
2023/10/20 07:42:33;;;;;;;15.93;12.97;;;13.90;49.00;;;;;;5035385;28;20983;-69
2023/10/20 07:45:00;;;;;;;14.07;12.37;;;13.90;49.20;;;;;;5034252;28;20425;-69
2023/10/20 07:47:26;;;;;;;15.20;11.73;;;14.00;47.20;;;;;;5033980;28;20195;-67
2023/10/20 07:49:51;;;;;;;13.33;11.17;;;14.00;49.90;;;;;;5034075;28;20948;-67
2023/10/20 07:52:17;;;;;;;14.57;13.03;;;14.00;48.20;;;;;;5034338;28;20424;-68
2023/10/20 07:54:43;;;;;;;14.30;12.80;;;13.90;46.60;;;;;;5035323;28;20187;-68
2023/10/20 07:57:09;;;;;;;13.83;12.07;;;13.90;48.30;;;;;;5033772;28;20300;-68
2023/10/20 07:59:35;;;;;;;16.87;12.43;;;14.10;49.70;;;;;;5035382;28;20182;-68
2023/10/20 08:02:00;;;;;;;21.93;14.20;;;14.00;45.90;;;;;;5033806;28;20461;-67
2023/10/20 08:04:26;;;;;;;14.90;13.30;;;14.20;47.00;;;;;;5035237;28;20289;-68
2023/10/20 08:06:54;;;;;;;16.70;14.23;;;14.40;40.00;;;;;;5035100;28;20183;-68
2023/10/20 08:09:20;;;;;;;17.10;12.93;;;14.40;35.10;;;;;;5035166;28;20414;-69
2023/10/20 08:11:45;;;;;;;15.97;13.90;;;14.30;33.40;;;;;;5035047;28;20421;-69
2023/10/20 08:14:12;;;;;;;13.20;11.80;;;14.30;34.40;;;;;;5034933;28;20267;-67
2023/10/20 08:16:38;;;;;;;12.77;11.40;;;14.40;34.00;;;;;;5057129;22;20653;-69
2023/10/20 08:19:03;;;;;;;15.13;12.67;;;14.50;32.60;;;;;;5033279;28;20462;-69
2023/10/20 08:21:32;;;;;;;19.53;11.43;;;14.60;28.00;;;;;;5034804;28;20851;-68
2023/10/20 08:24:02;;;;;;;28.10;14.33;;;14.60;25.50;;;;;;5034750;28;20171;-68
2023/10/20 08:26:27;;;;;;;14.77;13.10;;;14.70;23.20;;;;;;5033355;28;20509;-68
2023/10/20 08:28:53;;;;;;;14.03;12.47;;;14.70;18.80;;;;;;5034282;28;20533;-68
2023/10/20 08:31:21;;;;;;;13.03;11.50;;;14.80;15.80;;;;;;5034637;28;20183;-68
2023/10/20 08:33:48;;;;;;;15.73;11.83;;;14.70;16.20;;;;;;5034618;28;20259;-68
2023/10/20 08:36:20;;;;;;;13.47;11.33;;;14.70;14.20;;;;;;5034435;28;20417;-68
2023/10/20 08:38:47;;;;;;;13.20;10.43;;;15.00;14.90;;;;;;5033006;28;20531;-67
2023/10/20 08:41:13;;;;;;;11.30;10.10;;;15.20;13.90;;;;;;5034402;28;20460;-69
2023/10/20 08:43:40;;;;;;;12.80;9.40;;;15.40;17.80;;;;;;5034170;28;20773;-68
2023/10/20 08:46:08;;;;;;;12.23;8.70;;;15.40;21.00;;;;;;5034378;28;20417;-67
2023/10/20 08:48:37;;;;;;;8.93;6.87;;;15.50;20.70;;;;;;5032758;28;20952;-68
2023/10/20 08:51:04;;;;;;;9.13;7.23;;;15.70;20.60;;;;;;5033072;28;20429;-67
2023/10/20 08:53:33;;;;;;;9.80;8.57;;;15.80;19.10;;;;;;5034189;28;20414;-68
2023/10/20 08:55:59;;;;;;;8.33;7.43;;;16.00;18.80;;;;;;5034536;28;20410;-68
2023/10/20 08:58:27;;;;;;;8.17;6.93;;;16.30;16.80;;;;;;5033817;28;20492;-68
2023/10/20 09:00:54;;;;;;;9.53;8.37;;;16.90;12.30;;;;;;5034006;28;20507;-68
2023/10/20 09:03:19;;;;;;;9.30;8.30;;;17.20;12.00;;;;;;5034173;28;20421;-68
2023/10/20 09:05:45;;;;;;;7.27;6.50;;;17.30;9.30;;;;;;5032883;28;20422;-68
2023/10/20 09:08:12;;;;;;;7.10;5.83;;;16.50;9.40;;;;;;5033789;28;20200;-68
2023/10/20 09:10:45;;;;;;;6.03;5.20;;;16.40;11.20;;;;;;5033909;28;20195;-67
2023/10/20 09:13:11;;;;;;;6.87;5.90;;;16.20;12.90;;;;;;5034063;28;20496;-68
2023/10/20 09:15:37;;;;;;;5.97;5.33;;;16.10;14.60;;;;;;5033863;28;20416;-68
2023/10/20 09:18:06;;;;;;;6.00;4.90;;;16.30;14.00;;;;;;5033589;28;20454;-67
2023/10/20 09:20:32;;;;;;;7.93;5.07;;;16.40;14.10;;;;;;5032502;28;20289;-68
2023/10/20 09:22:58;;;;;;;6.60;5.33;;;16.30;12.20;;;;;;5032447;28;20505;-69
2023/10/20 09:25:23;;;;;;;5.90;4.57;;;16.40;13.80;;;;;;5033615;28;20574;-67
2023/10/20 09:27:49;;;;;;;7.00;4.70;;;16.50;12.80;;;;;;5033491;28;20245;-69
2023/10/20 09:30:16;;;;;;;5.40;4.50;;;16.70;12.60;;;;;;5033561;28;20183;-69
2023/10/20 09:32:41;;;;;;;5.60;5.00;;;17.00;13.00;;;;;;5033440;28;20418;-69
2023/10/20 09:35:08;;;;;;;7.27;5.03;;;17.40;11.50;;;;;;5033434;28;20433;-69
2023/10/20 09:37:38;;;;;;;5.47;4.50;;;17.40;7.00;;;;;;5033261;28;20274;-69
2023/10/20 09:40:08;;;;;;;5.07;4.27;;;17.70;9.10;;;;;;5033348;28;20483;-69
2023/10/20 09:43:07;;;;;;;4.87;4.20;;;18.10;8.60;;;;;;5033493;28;21063;-69
2023/10/20 09:45:37;;;;;;;8.30;3.90;;;18.40;6.50;;;;;;5033273;28;20410;-69
2023/10/20 09:48:15;;;;;;;6.67;4.30;;;18.80;4.00;;;;;;5032951;28;20479;-69
2023/10/20 09:50:42;;;;;;;6.30;4.47;;;19.30;1.00;;;;;;5033263;28;20639;-69
2023/10/20 09:53:08;;;;;;;5.77;4.60;;;19.60;1.50;;;;;;5033224;28;20481;-69
2023/10/20 09:55:34;;;;;;;5.00;3.90;;;19.80;1.00;;;;;;5032377;28;20418;-69
2023/10/20 09:58:00;;;;;;;6.87;4.03;;;19.60;1.00;;;;;;5032764;28;20421;-69
2023/10/20 10:00:34;;;;;;;6.07;3.77;;;19.70;1.00;;;;;;5032965;28;20612;-69
2023/10/20 10:03:00;;;;;;;5.77;3.70;;;19.60;1.00;;;;;;5032968;28;20167;-69
2023/10/20 10:05:27;;;;;;;5.43;4.00;;;19.70;1.00;;;;;;5033032;28;20414;-69
2023/10/20 10:08:10;;;;;;;5.80;3.47;;;19.90;1.00;;;;;;5032670;28;20248;-69
2023/10/20 10:10:35;;;;;;;5.30;4.37;;;20.00;1.00;;;;;;5032878;28;20519;-68
2023/10/20 10:13:05;;;;;;;4.33;3.50;;;20.00;1.00;;;;;;5032753;28;20948;-69
2023/10/20 10:15:39;;;;;;;4.87;3.20;;;20.20;1.00;;;;;;5032756;28;20417;-69
2023/10/20 10:18:12;;;;;;;4.53;3.13;;;20.40;1.00;;;;;;5031037;28;20541;-69
2023/10/20 10:20:45;;;;;;;4.90;3.60;;;20.20;1.00;;;;;;5031279;28;20462;-69
2023/10/20 10:23:17;;;;;;;4.80;3.80;;;20.30;1.00;;;;;;5032595;28;20406;-68
2023/10/20 10:25:46;;;;;;;4.43;2.93;;;20.20;1.00;;;;;;5032494;28;20488;-69
2023/10/20 10:28:13;;;;;;;4.77;3.67;;;19.90;1.00;;;;;;5032261;28;20858;-69
2023/10/20 10:30:40;;;;;;;4.20;3.17;;;19.90;1.00;;;;;;5031182;28;20442;-68
2023/10/20 10:33:10;;;;;;;4.80;3.40;;;19.80;1.00;;;;;;5032453;28;20417;-68
2023/10/20 10:35:38;;;;;;;7.97;3.50;;;20.00;1.00;;;;;;5031076;28;20425;-69
2023/10/20 10:38:22;;;;;;;4.63;2.80;;;20.00;1.00;;;;;;5031978;28;21007;-68
2023/10/20 10:40:51;;;;;;;4.13;3.07;;;19.80;1.00;;;;;;5032134;28;20461;-69
2023/10/20 10:43:18;;;;;;;6.70;3.67;;;19.70;1.00;;;;;;5032310;28;20410;-69
2023/10/20 10:45:44;;;;;;;4.50;2.90;;;19.50;1.00;;;;;;5032088;28;20492;-69
2023/10/20 10:48:18;;;;;;;3.40;2.30;;;19.40;1.00;;;;;;5031818;28;20462;-68
2023/10/20 10:50:45;;;;;;;4.30;2.40;;;19.20;1.00;;;;;;5031978;28;20415;-69
2023/10/20 10:53:12;;;;;;;3.87;2.00;;;18.90;1.20;;;;;;5031967;28;20421;-69
2023/10/20 10:55:38;;;;;;;3.63;2.30;;;18.60;2.90;;;;;;5031950;28;20410;-68
2023/10/20 10:58:10;;;;;;;3.80;2.50;;;18.60;4.70;;;;;;5031660;28;20442;-69
2023/10/20 11:00:37;;;;;;;3.77;1.97;;;18.70;3.20;;;;;;5031851;28;20461;-68
2023/10/20 11:03:04;;;;;;;3.27;2.40;;;18.50;3.40;;;;;;5031920;28;20406;-69
2023/10/20 11:05:31;;;;;;;3.17;2.10;;;18.60;4.20;;;;;;5031959;28;20471;-69
2023/10/20 11:07:59;;;;;;;7.37;2.70;;;18.70;4.20;;;;;;5031590;28;20518;-69
2023/10/20 11:10:28;;;;;;;2.70;1.53;;;18.90;3.50;;;;;;5031904;28;20425;-69
2023/10/20 11:12:55;;;;;;;2.63;1.90;;;18.80;2.80;;;;;;5031897;28;20414;-68
2023/10/20 11:15:21;;;;;;;4.40;2.10;;;18.80;1.80;;;;;;5030821;28;20964;-69
2023/10/20 11:17:49;;;;;;;2.00;1.00;;;18.60;1.00;;;;;;5029989;28;20516;-69
2023/10/20 11:20:18;;;;;;;4.50;0.90;;;18.70;1.00;;;;;;5031646;28;20221;-69
2023/10/20 11:22:44;;;;;;;1.83;0.80;;;18.80;1.00;;;;;;5031743;28;20784;-68
2023/10/20 11:25:18;;;;;;;2.10;0.80;;;18.70;1.00;;;;;;5031634;28;20417;-69
2023/10/20 11:27:46;;;;;;;1.70;0.70;;;18.60;1.00;;;;;;5031482;28;20210;-68
2023/10/20 11:30:12;;;;;;;2.03;0.83;;;18.70;1.00;;;;;;5031458;28;20411;-68
2023/10/20 11:32:37;;;;;;;2.73;1.10;;;18.50;1.00;;;;;;5031663;28;20418;-67
2023/10/20 11:35:04;;;;;;;1.80;0.60;;;18.40;1.00;;;;;;5031474;28;20225;-68
2023/10/20 11:37:30;;;;;;;1.70;0.63;;;18.30;1.00;;;;;;5031338;28;20198;-68
2023/10/20 11:39:55;;;;;;;1.87;0.70;;;18.30;1.00;;;;;;5031500;28;20410;-69
2023/10/20 11:42:21;;;;;;;1.60;0.57;;;18.30;1.00;;;;;;5031280;28;20210;-69
2023/10/20 11:44:46;;;;;;;1.60;0.70;;;18.20;1.00;;;;;;5031428;28;20175;-69
2023/10/20 11:47:12;;;;;;;1.83;0.53;;;18.10;1.00;;;;;;5031218;28;20203;-69
2023/10/20 11:49:38;;;;;;;1.50;0.50;;;18.10;1.00;;;;;;5030126;28;20171;-69
2023/10/20 11:52:07;;;;;;;1.77;0.60;;;18.20;1.00;;;;;;5031335;28;20207;-70
2023/10/20 11:54:32;;;;;;;1.60;0.50;;;18.20;1.00;;;;;;5031424;28;20195;-68
2023/10/20 11:56:58;;;;;;;1.60;0.60;;;18.40;1.00;;;;;;5031134;28;20531;-69
2023/10/20 11:59:24;;;;;;;1.70;0.60;;;18.60;1.00;;;;;;5031379;28;20175;-69
2023/10/20 12:01:49;;;;;;;1.90;0.90;;;18.80;1.00;;;;;;5031403;28;20207;-68
2023/10/20 12:04:15;;;;;;;1.70;0.60;;;19.00;1.00;;;;;;5031357;28;20172;-68
2023/10/20 12:06:40;;;;;;;1.80;0.50;;;19.20;1.00;;;;;;5031301;28;20627;-68
2023/10/20 12:09:10;;;;;;;1.70;0.63;;;18.90;1.00;;;;;;5031310;28;20198;-69
2023/10/20 12:11:36;;;;;;;1.63;0.57;;;19.10;1.00;;;;;;5032014;28;20226;-69
2023/10/20 12:14:04;;;;;;;1.60;0.60;;;19.20;1.00;;;;;;5032375;28;20489;-69
2023/10/20 12:16:29;;;;;;;1.50;0.50;;;19.10;1.00;;;;;;5033319;28;20467;-69
2023/10/20 12:18:55;;;;;;;1.60;0.60;;;19.10;1.00;;;;;;5034398;28;20543;-69
2023/10/20 12:21:20;;;;;;;1.50;0.40;;;19.00;1.00;;;;;;5036219;28;20211;-69
2023/10/20 12:23:46;;;;;;;2.10;0.70;;;19.10;1.00;;;;;;5035100;28;20176;-68
2023/10/20 12:26:11;;;;;;;1.70;0.50;;;19.00;1.00;;;;;;5035036;28;20176;-69
2023/10/20 12:28:37;;;;;;;4.53;0.60;;;19.50;1.00;;;;;;5034659;28;20191;-68
2023/10/20 12:31:03;;;;;;;1.60;0.60;;;19.90;1.00;;;;;;5034966;28;20183;-69
2023/10/20 12:33:29;;;;;;;1.80;0.67;;;19.90;1.00;;;;;;5034819;28;20610;-69
2023/10/20 12:35:55;;;;;;;1.70;0.70;;;19.70;1.00;;;;;;5034656;28;20183;-68
2023/10/20 12:38:21;;;;;;;1.70;0.70;;;19.70;1.00;;;;;;5034212;28;20488;-68
2023/10/20 12:40:49;;;;;;;2.57;1.43;;;19.70;1.00;;;;;;5034388;28;20489;-68
2023/10/20 12:43:15;;;;;;;1.60;0.67;;;19.60;1.00;;;;;;5034460;28;20449;-69
2023/10/20 12:45:40;;;;;;;1.57;0.63;;;19.60;1.00;;;;;;5034418;28;20826;-69
2023/10/20 12:48:06;;;;;;;1.60;0.60;;;19.70;1.00;;;;;;5034150;28;20932;-68
2023/10/20 12:50:32;;;;;;;1.60;0.70;;;19.60;1.00;;;;;;5034376;28;20209;-69
2023/10/20 12:53:02;;;;;;;1.60;0.60;;;20.00;1.00;;;;;;5034175;28;20410;-68
2023/10/20 12:55:28;;;;;;;2.20;1.07;;;20.50;1.00;;;;;;5034547;28;20418;-69
2023/10/20 12:57:53;;;;;;;1.70;0.70;;;20.60;1.00;;;;;;5033721;28;21051;-69
2023/10/20 13:00:20;;;;;;;4.67;0.80;;;20.60;1.00;;;;;;5033831;28;20184;-69
2023/10/20 13:02:49;;;;;;;3.30;0.83;;;20.40;1.00;;;;;;5032544;28;20221;-69
2023/10/20 13:05:16;;;;;;;1.50;0.60;;;20.00;1.00;;;;;;5033908;28;20425;-69
2023/10/20 13:07:42;;;;;;;1.70;0.80;;;19.90;1.00;;;;;;5033872;28;20434;-68
2023/10/20 13:10:08;;;;;;;1.60;0.80;;;19.60;1.00;;;;;;5032533;28;20429;-69
2023/10/20 13:12:33;;;;;;;2.43;0.60;;;19.20;1.00;;;;;;5032634;28;20959;-68
2023/10/20 13:14:59;;;;;;;1.60;0.80;;;18.70;1.00;;;;;;5032611;28;20175;-68
2023/10/20 13:17:26;;;;;;;1.80;0.70;;;18.70;1.00;;;;;;5032191;28;20259;-69
2023/10/20 13:19:52;;;;;;;1.70;0.70;;;18.60;1.00;;;;;;5033864;28;20532;-68
2023/10/20 13:22:18;;;;;;;1.80;0.70;;;18.40;1.00;;;;;;5033813;28;20450;-68